sensor_id;sensor_type;location;lat;lon;timestamp;pressure;altitude;pressure_sealevel;temperature;humidity
10712;BME280;5407;51.234;6.804;2023-10-31T00:01:32;99098.44;;;13.52;100.00
10712;BME280;5407;51.234;6.804;2023-10-31T00:04:01;99102.31;;;13.51;100.00
10712;BME280;5407;51.234;6.804;2023-10-31T00:06:28;99121.53;;;13.67;99.23
10712;BME280;5407;51.234;6.804;2023-10-31T00:08:55;99121.47;;;13.74;98.46
10712;BME280;5407;51.234;6.804;2023-10-31T00:11:22;99125.47;;;13.56;98.94
10712;BME280;5407;51.234;6.804;2023-10-31T00:13:48;99134.84;;;13.48;99.72
10712;BME280;5407;51.234;6.804;2023-10-31T00:16:15;99137.06;;;13.63;98.80
10712;BME280;5407;51.234;6.804;2023-10-31T00:18:42;99141.50;;;13.87;97.37
10712;BME280;5407;51.234;6.804;2023-10-31T00:21:10;99145.66;;;13.51;97.42
10712;BME280;5407;51.234;6.804;2023-10-31T00:23:43;99152.63;;;13.52;97.92
10712;BME280;5407;51.234;6.804;2023-10-31T00:26:10;99157.19;;;13.59;97.10
10712;BME280;5407;51.234;6.804;2023-10-31T00:28:38;99145.94;;;13.64;96.30
10712;BME280;5407;51.234;6.804;2023-10-31T00:31:05;99171.59;;;13.49;97.13
10712;BME280;5407;51.234;6.804;2023-10-31T00:33:33;99186.34;;;13.41;96.09
10712;BME280;5407;51.234;6.804;2023-10-31T00:36:01;99185.56;;;13.44;96.12
10712;BME280;5407;51.234;6.804;2023-10-31T00:38:30;99194.06;;;13.46;95.77
10712;BME280;5407;51.234;6.804;2023-10-31T00:40:56;99192.47;;;13.55;95.71
10712;BME280;5407;51.234;6.804;2023-10-31T00:43:23;99197.03;;;13.62;94.99
10712;BME280;5407;51.234;6.804;2023-10-31T00:45:50;99192.78;;;13.61;94.04
10712;BME280;5407;51.234;6.804;2023-10-31T00:48:17;99196.22;;;13.72;93.93
10712;BME280;5407;51.234;6.804;2023-10-31T00:50:45;99199.47;;;13.49;93.83
10712;BME280;5407;51.234;6.804;2023-10-31T00:53:12;99209.22;;;13.33;93.37
10712;BME280;5407;51.234;6.804;2023-10-31T00:55:41;99205.22;;;13.55;93.07
10712;BME280;5407;51.234;6.804;2023-10-31T00:58:08;99217.72;;;13.35;91.96
10712;BME280;5407;51.234;6.804;2023-10-31T01:00:35;99220.81;;;13.33;91.90
10712;BME280;5407;51.234;6.804;2023-10-31T01:03:02;99219.22;;;13.39;92.06
10712;BME280;5407;51.234;6.804;2023-10-31T01:05:30;99228.97;;;13.30;92.03
10712;BME280;5407;51.234;6.804;2023-10-31T01:07:57;99242.47;;;13.33;92.29
10712;BME280;5407;51.234;6.804;2023-10-31T01:10:23;99235.91;;;13.31;91.80
10712;BME280;5407;51.234;6.804;2023-10-31T01:12:53;99238.63;;;13.31;92.30
10712;BME280;5407;51.234;6.804;2023-10-31T01:15:20;99247.09;;;13.40;91.22
10712;BME280;5407;51.234;6.804;2023-10-31T01:17:47;99244.84;;;13.24;92.01
10712;BME280;5407;51.234;6.804;2023-10-31T01:20:14;99248.75;;;13.06;92.81
10712;BME280;5407;51.234;6.804;2023-10-31T01:22:41;99248.75;;;13.10;93.42
10712;BME280;5407;51.234;6.804;2023-10-31T01:25:08;99257.97;;;13.29;93.52
10712;BME280;5407;51.234;6.804;2023-10-31T01:27:36;99253.31;;;13.37;93.19
10712;BME280;5407;51.234;6.804;2023-10-31T01:30:06;99250.25;;;13.24;93.02
10712;BME280;5407;51.234;6.804;2023-10-31T01:32:33;99252.56;;;13.22;93.21
10712;BME280;5407;51.234;6.804;2023-10-31T01:35:00;99246.75;;;13.27;94.03
10712;BME280;5407;51.234;6.804;2023-10-31T01:37:27;99247.88;;;13.33;94.25
10712;BME280;5407;51.234;6.804;2023-10-31T01:39:54;99258.66;;;13.54;93.54
10712;BME280;5407;51.234;6.804;2023-10-31T01:42:21;99257.16;;;13.39;93.31
10712;BME280;5407;51.234;6.804;2023-10-31T01:44:48;99260.94;;;13.56;93.33
10712;BME280;5407;51.234;6.804;2023-10-31T01:47:16;99262.50;;;13.57;93.01
10712;BME280;5407;51.234;6.804;2023-10-31T01:49:43;99267.53;;;13.55;93.49
10712;BME280;5407;51.234;6.804;2023-10-31T01:52:10;99267.88;;;13.64;93.30
10712;BME280;5407;51.234;6.804;2023-10-31T01:54:37;99268.00;;;13.32;93.69
10712;BME280;5407;51.234;6.804;2023-10-31T01:57:07;99268.41;;;13.27;93.69
10712;BME280;5407;51.234;6.804;2023-10-31T01:59:33;99268.00;;;13.36;94.38
10712;BME280;5407;51.234;6.804;2023-10-31T02:02:01;99275.03;;;13.23;94.18
10712;BME280;5407;51.234;6.804;2023-10-31T02:04:31;99276.50;;;13.34;95.19
10712;BME280;5407;51.234;6.804;2023-10-31T02:06:59;99270.34;;;13.34;94.45
10712;BME280;5407;51.234;6.804;2023-10-31T02:09:27;99269.22;;;13.21;95.36
10712;BME280;5407;51.234;6.804;2023-10-31T02:11:56;99265.38;;;13.12;95.21
10712;BME280;5407;51.234;6.804;2023-10-31T02:14:24;99265.81;;;12.96;95.66
10712;BME280;5407;51.234;6.804;2023-10-31T02:16:51;99269.63;;;13.09;96.50
10712;BME280;5407;51.234;6.804;2023-10-31T02:19:19;99261.94;;;12.97;96.73
10712;BME280;5407;51.234;6.804;2023-10-31T02:21:48;99266.53;;;13.14;96.02
10712;BME280;5407;51.234;6.804;2023-10-31T02:24:16;99264.56;;;13.18;96.19
10712;BME280;5407;51.234;6.804;2023-10-31T02:26:44;99270.00;;;13.18;96.14
10712;BME280;5407;51.234;6.804;2023-10-31T02:29:11;99265.38;;;13.18;95.82
10712;BME280;5407;51.234;6.804;2023-10-31T02:31:38;99262.72;;;12.94;96.84
10712;BME280;5407;51.234;6.804;2023-10-31T02:34:05;99262.69;;;13.08;96.61
10712;BME280;5407;51.234;6.804;2023-10-31T02:36:32;99260.34;;;13.13;96.05
10712;BME280;5407;51.234;6.804;2023-10-31T02:39:01;99265.81;;;12.96;97.91
10712;BME280;5407;51.234;6.804;2023-10-31T02:41:28;99261.13;;;13.11;97.45
10712;BME280;5407;51.234;6.804;2023-10-31T02:43:55;99267.31;;;13.11;98.41
10712;BME280;5407;51.234;6.804;2023-10-31T02:46:23;99264.19;;;13.16;98.28
10712;BME280;5407;51.234;6.804;2023-10-31T02:48:50;99274.25;;;13.26;98.46
10712;BME280;5407;51.234;6.804;2023-10-31T02:51:17;99269.97;;;13.28;98.97
10712;BME280;5407;51.234;6.804;2023-10-31T02:53:44;99276.16;;;13.29;99.30
10712;BME280;5407;51.234;6.804;2023-10-31T02:56:13;99271.94;;;13.14;99.89
10712;BME280;5407;51.234;6.804;2023-10-31T02:58:39;99272.34;;;13.13;100.00
10712;BME280;5407;51.234;6.804;2023-10-31T03:01:06;99272.38;;;12.95;100.00
10712;BME280;5407;51.234;6.804;2023-10-31T03:03:33;99273.91;;;13.03;100.00
10712;BME280;5407;51.234;6.804;2023-10-31T03:06:00;99271.19;;;13.13;98.67
10712;BME280;5407;51.234;6.804;2023-10-31T03:08:27;99282.03;;;12.93;99.71
10712;BME280;5407;51.234;6.804;2023-10-31T03:10:54;99277.81;;;12.95;99.53
10712;BME280;5407;51.234;6.804;2023-10-31T03:13:22;99280.47;;;13.09;98.62
10712;BME280;5407;51.234;6.804;2023-10-31T03:15:49;99284.72;;;13.13;98.21
10712;BME280;5407;51.234;6.804;2023-10-31T03:18:16;99286.25;;;13.25;96.34
10712;BME280;5407;51.234;6.804;2023-10-31T03:20:44;99281.97;;;13.20;97.09
10712;BME280;5407;51.234;6.804;2023-10-31T03:23:12;99290.50;;;13.26;96.60
10712;BME280;5407;51.234;6.804;2023-10-31T03:25:39;99300.59;;;13.12;96.52
10712;BME280;5407;51.234;6.804;2023-10-31T03:28:17;99289.31;;;13.20;96.85
10712;BME280;5407;51.234;6.804;2023-10-31T03:30:46;99287.06;;;13.01;96.61
10712;BME280;5407;51.234;6.804;2023-10-31T03:33:14;99292.03;;;13.20;96.20
10712;BME280;5407;51.234;6.804;2023-10-31T03:35:41;99299.06;;;13.00;96.90
10712;BME280;5407;51.234;6.804;2023-10-31T03:38:08;99302.91;;;13.06;96.65
10712;BME280;5407;51.234;6.804;2023-10-31T03:40:35;99298.22;;;13.31;95.76
10712;BME280;5407;51.234;6.804;2023-10-31T03:43:03;99296.69;;;13.23;95.72
10712;BME280;5407;51.234;6.804;2023-10-31T03:45:30;99295.16;;;12.91;95.33
10712;BME280;5407;51.234;6.804;2023-10-31T03:48:00;99298.28;;;13.03;96.53
10712;BME280;5407;51.234;6.804;2023-10-31T03:50:26;99303.63;;;13.31;95.58
10712;BME280;5407;51.234;6.804;2023-10-31T03:52:53;99304.03;;;13.19;96.15
10712;BME280;5407;51.234;6.804;2023-10-31T03:55:20;99309.00;;;13.38;95.33
10712;BME280;5407;51.234;6.804;2023-10-31T03:57:47;99312.91;;;13.30;95.37
10712;BME280;5407;51.234;6.804;2023-10-31T04:00:15;99326.88;;;13.11;96.39
10712;BME280;5407;51.234;6.804;2023-10-31T04:02:42;99323.78;;;13.23;95.02
10712;BME280;5407;51.234;6.804;2023-10-31T04:05:10;99320.31;;;12.91;96.94
10712;BME280;5407;51.234;6.804;2023-10-31T04:07:37;99326.47;;;13.19;95.76
10712;BME280;5407;51.234;6.804;2023-10-31T04:10:05;99323.81;;;12.95;96.74
10712;BME280;5407;51.234;6.804;2023-10-31T04:12:33;99324.53;;;13.13;96.07
10712;BME280;5407;51.234;6.804;2023-10-31T04:15:00;99327.25;;;13.13;96.21
10712;BME280;5407;51.234;6.804;2023-10-31T04:17:27;99325.31;;;13.17;95.90
10712;BME280;5407;51.234;6.804;2023-10-31T04:19:54;99334.97;;;13.25;95.44
10712;BME280;5407;51.234;6.804;2023-10-31T04:22:22;99333.06;;;13.08;96.11
10712;BME280;5407;51.234;6.804;2023-10-31T04:24:49;99338.50;;;12.87;97.29
10712;BME280;5407;51.234;6.804;2023-10-31T04:27:16;99338.88;;;13.10;96.59
10712;BME280;5407;51.234;6.804;2023-10-31T04:29:44;99340.81;;;13.06;97.66
10712;BME280;5407;51.234;6.804;2023-10-31T04:32:11;99340.78;;;13.20;96.93
10712;BME280;5407;51.234;6.804;2023-10-31T04:34:38;99346.63;;;13.01;97.57
10712;BME280;5407;51.234;6.804;2023-10-31T04:37:05;99357.84;;;13.07;96.92
10712;BME280;5407;51.234;6.804;2023-10-31T04:39:33;99364.00;;;13.14;96.91
10712;BME280;5407;51.234;6.804;2023-10-31T04:42:00;99362.47;;;12.99;96.63
10712;BME280;5407;51.234;6.804;2023-10-31T04:44:27;99361.69;;;13.02;97.22
10712;BME280;5407;51.234;6.804;2023-10-31T04:46:54;99367.06;;;13.33;95.79
10712;BME280;5407;51.234;6.804;2023-10-31T04:49:21;99371.34;;;13.20;95.54
10712;BME280;5407;51.234;6.804;2023-10-31T04:51:48;99365.50;;;13.36;95.65
10712;BME280;5407;51.234;6.804;2023-10-31T04:54:15;99372.53;;;13.02;98.18
10712;BME280;5407;51.234;6.804;2023-10-31T04:56:43;99375.22;;;13.23;98.46
10712;BME280;5407;51.234;6.804;2023-10-31T04:59:10;99374.44;;;13.12;98.58
10712;BME280;5407;51.234;6.804;2023-10-31T05:01:37;99381.03;;;13.01;99.79
10712;BME280;5407;51.234;6.804;2023-10-31T05:04:04;99377.94;;;13.02;98.88
10712;BME280;5407;51.234;6.804;2023-10-31T05:06:31;99377.16;;;12.95;99.56
10712;BME280;5407;51.234;6.804;2023-10-31T05:08:58;99374.44;;;13.19;98.96
10712;BME280;5407;51.234;6.804;2023-10-31T05:11:25;99387.97;;;13.26;98.38
10712;BME280;5407;51.234;6.804;2023-10-31T05:13:53;99382.56;;;13.19;98.73
10712;BME280;5407;51.234;6.804;2023-10-31T05:16:20;99383.72;;;13.25;98.63
10712;BME280;5407;51.234;6.804;2023-10-31T05:18:47;99397.66;;;13.27;98.26
10712;BME280;5407;51.234;6.804;2023-10-31T05:21:18;99388.75;;;13.09;100.00
10712;BME280;5407;51.234;6.804;2023-10-31T05:23:46;99397.25;;;12.90;100.00
10712;BME280;5407;51.234;6.804;2023-10-31T05:26:13;99394.94;;;12.78;100.00
10712;BME280;5407;51.234;6.804;2023-10-31T05:28:39;99396.47;;;13.14;100.00
10712;BME280;5407;51.234;6.804;2023-10-31T05:31:08;99394.16;;;12.81;100.00
10712;BME280;5407;51.234;6.804;2023-10-31T05:33:35;99398.78;;;12.88;100.00
10712;BME280;5407;51.234;6.804;2023-10-31T05:36:02;99403.09;;;12.92;100.00
10712;BME280;5407;51.234;6.804;2023-10-31T05:38:29;99401.13;;;12.82;100.00
10712;BME280;5407;51.234;6.804;2023-10-31T05:40:56;99408.81;;;12.59;100.00
10712;BME280;5407;51.234;6.804;2023-10-31T05:43:23;99409.97;;;12.51;100.00
10712;BME280;5407;51.234;6.804;2023-10-31T05:45:50;99419.63;;;12.59;100.00
10712;BME280;5407;51.234;6.804;2023-10-31T05:48:18;99424.31;;;12.83;100.00
10712;BME280;5407;51.234;6.804;2023-10-31T05:50:45;99424.72;;;12.99;100.00
10712;BME280;5407;51.234;6.804;2023-10-31T05:53:12;99432.44;;;12.76;100.00
10712;BME280;5407;51.234;6.804;2023-10-31T05:55:39;99433.59;;;12.79;100.00
10712;BME280;5407;51.234;6.804;2023-10-31T05:58:06;99450.59;;;12.69;100.00
10712;BME280;5407;51.234;6.804;2023-10-31T06:00:33;99440.50;;;12.62;100.00
10712;BME280;5407;51.234;6.804;2023-10-31T06:03:00;99443.63;;;12.61;100.00
10712;BME280;5407;51.234;6.804;2023-10-31T06:05:29;99449.84;;;12.82;100.00
10712;BME280;5407;51.234;6.804;2023-10-31T06:07:56;99450.97;;;12.74;100.00
10712;BME280;5407;51.234;6.804;2023-10-31T06:10:23;99456.75;;;12.62;100.00
10712;BME280;5407;51.234;6.804;2023-10-31T06:12:50;99461.41;;;12.72;100.00
10712;BME280;5407;51.234;6.804;2023-10-31T06:15:17;99470.66;;;12.71;100.00
10712;BME280;5407;51.234;6.804;2023-10-31T06:17:44;99478.06;;;12.88;100.00
10712;BME280;5407;51.234;6.804;2023-10-31T06:20:11;99486.94;;;12.85;100.00
10712;BME280;5407;51.234;6.804;2023-10-31T06:22:39;99483.09;;;12.86;100.00
10712;BME280;5407;51.234;6.804;2023-10-31T06:25:06;99491.53;;;12.74;100.00
10712;BME280;5407;51.234;6.804;2023-10-31T06:27:33;99493.13;;;12.79;100.00
10712;BME280;5407;51.234;6.804;2023-10-31T06:30:00;99493.94;;;12.93;100.00
10712;BME280;5407;51.234;6.804;2023-10-31T06:32:28;99497.75;;;12.82;100.00
10712;BME280;5407;51.234;6.804;2023-10-31T06:34:55;99504.75;;;12.86;100.00
10712;BME280;5407;51.234;6.804;2023-10-31T06:37:22;99505.94;;;12.92;100.00
10712;BME280;5407;51.234;6.804;2023-10-31T06:39:50;99509.78;;;12.91;100.00
10712;BME280;5407;51.234;6.804;2023-10-31T06:42:17;99522.50;;;12.84;100.00
10712;BME280;5407;51.234;6.804;2023-10-31T06:44:44;99512.84;;;12.86;100.00
10712;BME280;5407;51.234;6.804;2023-10-31T06:47:11;99520.19;;;12.86;100.00
10712;BME280;5407;51.234;6.804;2023-10-31T06:49:38;99521.75;;;12.90;100.00
10712;BME280;5407;51.234;6.804;2023-10-31T06:52:05;99530.19;;;12.71;100.00
10712;BME280;5407;51.234;6.804;2023-10-31T06:54:32;99533.34;;;12.87;100.00
10712;BME280;5407;51.234;6.804;2023-10-31T06:57:02;99531.09;;;13.03;100.00
10712;BME280;5407;51.234;6.804;2023-10-31T06:59:28;99529.53;;;13.09;100.00
10712;BME280;5407;51.234;6.804;2023-10-31T07:01:55;99532.56;;;12.76;100.00
10712;BME280;5407;51.234;6.804;2023-10-31T07:04:22;99536.44;;;12.82;100.00
10712;BME280;5407;51.234;6.804;2023-10-31T07:06:49;99535.59;;;12.71;100.00
10712;BME280;5407;51.234;6.804;2023-10-31T07:09:22;99524.72;;;12.43;100.00
10712;BME280;5407;51.234;6.804;2023-10-31T07:11:49;99530.19;;;12.64;100.00
10712;BME280;5407;51.234;6.804;2023-10-31T07:14:17;99530.22;;;12.75;100.00
10712;BME280;5407;51.234;6.804;2023-10-31T07:16:44;99533.34;;;12.80;100.00
10712;BME280;5407;51.234;6.804;2023-10-31T07:19:11;99532.50;;;12.62;100.00
10712;BME280;5407;51.234;6.804;2023-10-31T07:21:38;99539.13;;;12.82;100.00
10712;BME280;5407;51.234;6.804;2023-10-31T07:24:06;99544.13;;;12.77;100.00
10712;BME280;5407;51.234;6.804;2023-10-31T07:26:34;99537.22;;;12.86;100.00
10712;BME280;5407;51.234;6.804;2023-10-31T07:29:01;99541.84;;;12.82;100.00
10712;BME280;5407;51.234;6.804;2023-10-31T07:31:29;99546.44;;;12.71;100.00
10712;BME280;5407;51.234;6.804;2023-10-31T07:33:56;99551.75;;;12.47;100.00
10712;BME280;5407;51.234;6.804;2023-10-31T07:36:23;99563.44;;;12.68;100.00
10712;BME280;5407;51.234;6.804;2023-10-31T07:38:50;99569.69;;;12.79;100.00
10712;BME280;5407;51.234;6.804;2023-10-31T07:41:17;99568.84;;;12.75;100.00
10712;BME280;5407;51.234;6.804;2023-10-31T07:43:44;99574.31;;;12.82;100.00
10712;BME280;5407;51.234;6.804;2023-10-31T07:46:11;99581.59;;;12.64;100.00
10712;BME280;5407;51.234;6.804;2023-10-31T07:48:39;99585.78;;;12.51;100.00
10712;BME280;5407;51.234;6.804;2023-10-31T07:51:06;99582.00;;;12.73;100.00
10712;BME280;5407;51.234;6.804;2023-10-31T07:53:33;99572.34;;;12.76;100.00
10712;BME280;5407;51.234;6.804;2023-10-31T07:56:00;99579.69;;;12.75;100.00
10712;BME280;5407;51.234;6.804;2023-10-31T07:58:27;99585.09;;;12.75;100.00
10712;BME280;5407;51.234;6.804;2023-10-31T08:00:54;99589.41;;;12.83;100.00
10712;BME280;5407;51.234;6.804;2023-10-31T08:03:21;99585.16;;;12.82;100.00
10712;BME280;5407;51.234;6.804;2023-10-31T08:05:49;99589.00;;;12.81;100.00
10712;BME280;5407;51.234;6.804;2023-10-31T08:08:16;99588.97;;;12.74;100.00
10712;BME280;5407;51.234;6.804;2023-10-31T08:10:43;99600.59;;;12.78;100.00
10712;BME280;5407;51.234;6.804;2023-10-31T08:13:10;99598.38;;;13.01;97.80
10712;BME280;5407;51.234;6.804;2023-10-31T08:15:37;99603.72;;;12.91;97.83
10712;BME280;5407;51.234;6.804;2023-10-31T08:18:06;99598.63;;;12.75;98.37
10712;BME280;5407;51.234;6.804;2023-10-31T08:20:33;99606.47;;;12.94;98.40
10712;BME280;5407;51.234;6.804;2023-10-31T08:23:02;99607.63;;;12.97;98.56
10712;BME280;5407;51.234;6.804;2023-10-31T08:25:29;99605.81;;;13.39;96.40
10712;BME280;5407;51.234;6.804;2023-10-31T08:27:55;99608.84;;;13.10;96.28
10712;BME280;5407;51.234;6.804;2023-10-31T08:30:22;99607.31;;;13.22;96.73
10712;BME280;5407;51.234;6.804;2023-10-31T08:32:49;99622.44;;;13.34;95.07
10712;BME280;5407;51.234;6.804;2023-10-31T08:35:16;99620.13;;;13.43;94.79
10712;BME280;5407;51.234;6.804;2023-10-31T08:37:43;99625.53;;;13.29;95.30
10712;BME280;5407;51.234;6.804;2023-10-31T08:40:12;99623.94;;;13.21;95.09
10712;BME280;5407;51.234;6.804;2023-10-31T08:42:39;99625.47;;;13.12;95.47
10712;BME280;5407;51.234;6.804;2023-10-31T08:45:08;99623.97;;;13.38;94.24
10712;BME280;5407;51.234;6.804;2023-10-31T08:47:35;99626.28;;;13.22;94.44
10712;BME280;5407;51.234;6.804;2023-10-31T08:50:02;99629.34;;;13.21;94.73
10712;BME280;5407;51.234;6.804;2023-10-31T08:52:29;99633.53;;;12.94;95.07
10712;BME280;5407;51.234;6.804;2023-10-31T08:54:55;99640.03;;;12.79;95.60
10712;BME280;5407;51.234;6.804;2023-10-31T08:57:24;99647.88;;;13.05;95.38
10712;BME280;5407;51.234;6.804;2023-10-31T08:59:50;99640.94;;;13.18;95.05
10712;BME280;5407;51.234;6.804;2023-10-31T09:02:17;99640.97;;;13.21;94.26
10712;BME280;5407;51.234;6.804;2023-10-31T09:04:44;99646.38;;;13.18;94.15
10712;BME280;5407;51.234;6.804;2023-10-31T09:07:11;99650.69;;;13.33;94.11
10712;BME280;5407;51.234;6.804;2023-10-31T09:09:38;99649.91;;;13.29;94.38
10712;BME280;5407;51.234;6.804;2023-10-31T09:12:05;99647.13;;;13.12;94.23
10712;BME280;5407;51.234;6.804;2023-10-31T09:14:34;99651.00;;;13.04;94.94
10712;BME280;5407;51.234;6.804;2023-10-31T09:17:02;99654.47;;;13.11;94.15
10712;BME280;5407;51.234;6.804;2023-10-31T09:19:29;99663.41;;;13.22;93.43
10712;BME280;5407;51.234;6.804;2023-10-31T09:21:56;99659.22;;;13.42;92.99
10712;BME280;5407;51.234;6.804;2023-10-31T09:24:23;99667.75;;;13.61;92.33
10712;BME280;5407;51.234;6.804;2023-10-31T09:26:50;99671.22;;;13.62;90.65
10712;BME280;5407;51.234;6.804;2023-10-31T09:29:19;99676.69;;;13.97;89.48
10712;BME280;5407;51.234;6.804;2023-10-31T09:31:47;99682.13;;;14.32;86.96
10712;BME280;5407;51.234;6.804;2023-10-31T09:34:15;99681.28;;;14.69;84.94
10712;BME280;5407;51.234;6.804;2023-10-31T09:36:43;99696.06;;;13.85;85.85
10712;BME280;5407;51.234;6.804;2023-10-31T09:39:10;99699.88;;;13.59;89.05
10712;BME280;5407;51.234;6.804;2023-10-31T09:41:37;99692.53;;;13.49;88.84
10712;BME280;5407;51.234;6.804;2023-10-31T09:44:06;99707.63;;;13.68;88.71
10712;BME280;5407;51.234;6.804;2023-10-31T09:46:32;99718.09;;;13.66;89.33
10712;BME280;5407;51.234;6.804;2023-10-31T09:49:00;99712.31;;;13.85;87.53
10712;BME280;5407;51.234;6.804;2023-10-31T09:51:28;99711.94;;;14.04;86.50
10712;BME280;5407;51.234;6.804;2023-10-31T09:53:55;99716.63;;;14.35;85.54
10712;BME280;5407;51.234;6.804;2023-10-31T09:56:24;99722.44;;;14.30;84.24
10712;BME280;5407;51.234;6.804;2023-10-31T09:58:52;99729.75;;;14.74;82.58
10712;BME280;5407;51.234;6.804;2023-10-31T10:01:19;99730.94;;;14.63;82.14
10712;BME280;5407;51.234;6.804;2023-10-31T10:03:46;99737.09;;;14.74;82.45
10712;BME280;5407;51.234;6.804;2023-10-31T10:06:14;99744.16;;;14.23;83.44
10712;BME280;5407;51.234;6.804;2023-10-31T10:08:41;99740.28;;;14.31;84.01
10712;BME280;5407;51.234;6.804;2023-10-31T10:11:08;99746.84;;;14.30;83.76
10712;BME280;5407;51.234;6.804;2023-10-31T10:13:35;99761.19;;;14.27;84.32
10712;BME280;5407;51.234;6.804;2023-10-31T10:16:02;99759.97;;;14.14;84.69
10712;BME280;5407;51.234;6.804;2023-10-31T10:18:31;99768.94;;;14.18;84.23
10712;BME280;5407;51.234;6.804;2023-10-31T10:20:59;99764.31;;;14.46;83.51
10712;BME280;5407;51.234;6.804;2023-10-31T10:23:29;99767.41;;;14.41;83.96
10712;BME280;5407;51.234;6.804;2023-10-31T10:25:57;99761.94;;;14.79;82.55
10712;BME280;5407;51.234;6.804;2023-10-31T10:28:25;99770.50;;;15.81;78.06
10712;BME280;5407;51.234;6.804;2023-10-31T10:30:53;99777.31;;;16.07;75.64
10712;BME280;5407;51.234;6.804;2023-10-31T10:33:21;99773.75;;;16.20;73.46
10712;BME280;5407;51.234;6.804;2023-10-31T10:35:48;99781.28;;;16.97;71.19
10712;BME280;5407;51.234;6.804;2023-10-31T10:38:16;99792.31;;;19.47;63.03
10712;BME280;5407;51.234;6.804;2023-10-31T10:40:47;99801.44;;;20.78;55.16
10712;BME280;5407;51.234;6.804;2023-10-31T10:43:20;99804.88;;;20.51;56.00
10712;BME280;5407;51.234;6.804;2023-10-31T10:45:53;99802.50;;;18.35;59.54
10712;BME280;5407;51.234;6.804;2023-10-31T10:48:22;99802.22;;;18.53;60.34
10712;BME280;5407;51.234;6.804;2023-10-31T10:50:51;99799.00;;;18.81;60.00
10712;BME280;5407;51.234;6.804;2023-10-31T10:53:24;99800.72;;;18.94;59.65
10712;BME280;5407;51.234;6.804;2023-10-31T10:55:59;99799.13;;;18.51;59.40
10712;BME280;5407;51.234;6.804;2023-10-31T10:58:33;99796.59;;;18.63;58.79
10712;BME280;5407;51.234;6.804;2023-10-31T11:01:02;99795.63;;;17.01;63.79
10712;BME280;5407;51.234;6.804;2023-10-31T11:03:30;99798.97;;;16.24;68.43
10712;BME280;5407;51.234;6.804;2023-10-31T11:05:58;99796.19;;;16.31;67.45
10712;BME280;5407;51.234;6.804;2023-10-31T11:08:27;99792.16;;;16.02;69.77
10712;BME280;5407;51.234;6.804;2023-10-31T11:10:57;99798.09;;;15.80;70.02
10712;BME280;5407;51.234;6.804;2023-10-31T11:13:24;99797.16;;;15.21;73.07
10712;BME280;5407;51.234;6.804;2023-10-31T11:15:53;99802.19;;;15.19;74.24
10712;BME280;5407;51.234;6.804;2023-10-31T11:18:23;99805.84;;;15.81;71.64
10712;BME280;5407;51.234;6.804;2023-10-31T11:20:51;99801.66;;;16.34;69.85
10712;BME280;5407;51.234;6.804;2023-10-31T11:23:18;99796.53;;;15.82;71.19
10712;BME280;5407;51.234;6.804;2023-10-31T11:25:49;99795.94;;;15.40;71.79
10712;BME280;5407;51.234;6.804;2023-10-31T11:28:19;99803.00;;;14.95;73.44
10712;BME280;5407;51.234;6.804;2023-10-31T11:30:48;99805.34;;;14.83;74.09
10712;BME280;5407;51.234;6.804;2023-10-31T11:33:19;99806.91;;;14.80;74.42
10712;BME280;5407;51.234;6.804;2023-10-31T11:35:50;99814.66;;;14.85;74.65
10712;BME280;5407;51.234;6.804;2023-10-31T11:38:30;99812.19;;;15.57;72.61
10712;BME280;5407;51.234;6.804;2023-10-31T11:40:59;99814.44;;;15.76;69.91
10712;BME280;5407;51.234;6.804;2023-10-31T11:43:52;99815.13;;;15.91;70.34
10712;BME280;5407;51.234;6.804;2023-10-31T11:46:19;99813.69;;;15.65;70.78
10712;BME280;5407;51.234;6.804;2023-10-31T11:48:48;99811.47;;;15.22;73.15
10712;BME280;5407;51.234;6.804;2023-10-31T11:51:15;99816.91;;;15.39;72.52
10712;BME280;5407;51.234;6.804;2023-10-31T11:53:43;99815.41;;;15.03;73.10
10712;BME280;5407;51.234;6.804;2023-10-31T11:56:18;99822.31;;;15.50;71.92
10712;BME280;5407;51.234;6.804;2023-10-31T11:58:56;99821.22;;;15.16;72.66
10712;BME280;5407;51.234;6.804;2023-10-31T12:01:23;99825.91;;;14.87;73.52
10712;BME280;5407;51.234;6.804;2023-10-31T12:03:50;99826.31;;;14.75;74.97
10712;BME280;5407;51.234;6.804;2023-10-31T12:06:17;99834.06;;;14.98;74.64
10712;BME280;5407;51.234;6.804;2023-10-31T12:08:46;99826.31;;;14.93;73.14
10712;BME280;5407;51.234;6.804;2023-10-31T12:11:15;99834.06;;;14.94;72.84
10712;BME280;5407;51.234;6.804;2023-10-31T12:13:53;99832.50;;;14.86;73.53
10712;BME280;5407;51.234;6.804;2023-10-31T12:16:24;99832.53;;;14.72;73.96
10712;BME280;5407;51.234;6.804;2023-10-31T12:18:56;99833.69;;;14.47;74.49
10712;BME280;5407;51.234;6.804;2023-10-31T12:21:39;99836.00;;;14.49;74.36
10712;BME280;5407;51.234;6.804;2023-10-31T12:24:10;99836.00;;;14.80;74.00
10712;BME280;5407;51.234;6.804;2023-10-31T12:26:38;99840.28;;;14.84;73.49
10712;BME280;5407;51.234;6.804;2023-10-31T12:29:09;99837.94;;;14.79;73.50
10712;BME280;5407;51.234;6.804;2023-10-31T12:31:42;99834.06;;;14.49;74.44
10712;BME280;5407;51.234;6.804;2023-10-31T12:34:09;99836.81;;;14.66;74.41
10712;BME280;5407;51.234;6.804;2023-10-31T12:36:36;99841.41;;;15.04;73.20
10712;BME280;5407;51.234;6.804;2023-10-31T12:39:06;99840.25;;;14.91;73.78
10712;BME280;5407;51.234;6.804;2023-10-31T12:41:34;99844.91;;;14.94;74.45
10712;BME280;5407;51.234;6.804;2023-10-31T12:44:02;99847.63;;;15.08;73.55
10712;BME280;5407;51.234;6.804;2023-10-31T12:46:31;99848.78;;;15.14;73.46
10712;BME280;5407;51.234;6.804;2023-10-31T12:49:02;99838.31;;;14.95;73.82
10712;BME280;5407;51.234;6.804;2023-10-31T12:51:28;99840.28;;;14.70;73.99
10712;BME280;5407;51.234;6.804;2023-10-31T12:53:55;99841.44;;;14.76;74.22
10712;BME280;5407;51.234;6.804;2023-10-31T12:56:36;99839.06;;;15.31;72.32
10712;BME280;5407;51.234;6.804;2023-10-31T12:59:05;99830.81;;;15.62;71.13
10712;BME280;5407;51.234;6.804;2023-10-31T13:01:33;99835.94;;;15.36;71.16
10712;BME280;5407;51.234;6.804;2023-10-31T13:04:03;99843.25;;;15.49;70.73
10712;BME280;5407;51.234;6.804;2023-10-31T13:06:30;99834.66;;;15.68;70.47
10712;BME280;5407;51.234;6.804;2023-10-31T13:08:57;99835.41;;;15.72;68.93
10712;BME280;5407;51.234;6.804;2023-10-31T13:11:29;99835.25;;;16.04;68.24